sensor_id;sensor_type;location;lat;lon;timestamp;P1;durP1;ratioP1;P2;durP2;ratioP2
65691;SDS011;52411;52.716;6.696;2022-11-06T00:01:10;13.35;;;8.73;;
65691;SDS011;52411;52.716;6.696;2022-11-06T00:03:37;15.55;;;8.40;;
65691;SDS011;52411;52.716;6.696;2022-11-06T00:06:06;13.40;;;8.45;;
65691;SDS011;52411;52.716;6.696;2022-11-06T00:08:51;14.35;;;8.80;;
65691;SDS011;52411;52.716;6.696;2022-11-06T00:11:17;15.38;;;8.30;;
65691;SDS011;52411;52.716;6.696;2022-11-06T00:13:43;14.15;;;9.23;;
65691;SDS011;52411;52.716;6.696;2022-11-06T00:16:09;16.55;;;8.98;;
65691;SDS011;52411;52.716;6.696;2022-11-06T00:18:36;14.52;;;8.88;;
65691;SDS011;52411;52.716;6.696;2022-11-06T00:21:07;15.98;;;8.93;;
65691;SDS011;52411;52.716;6.696;2022-11-06T00:23:34;14.25;;;9.13;;
65691;SDS011;52411;52.716;6.696;2022-11-06T00:25:59;15.35;;;9.55;;
65691;SDS011;52411;52.716;6.696;2022-11-06T00:28:28;18.42;;;9.15;;
65691;SDS011;52411;52.716;6.696;2022-11-06T00:31:01;15.57;;;9.05;;
65691;SDS011;52411;52.716;6.696;2022-11-06T00:33:28;14.73;;;8.43;;
65691;SDS011;52411;52.716;6.696;2022-11-06T00:35:54;15.00;;;8.25;;
65691;SDS011;52411;52.716;6.696;2022-11-06T00:38:19;15.85;;;10.00;;
65691;SDS011;52411;52.716;6.696;2022-11-06T00:40:45;16.15;;;10.00;;
65691;SDS011;52411;52.716;6.696;2022-11-06T00:43:11;15.30;;;8.75;;
65691;SDS011;52411;52.716;6.696;2022-11-06T00:45:36;14.00;;;8.90;;
65691;SDS011;52411;52.716;6.696;2022-11-06T00:48:02;19.48;;;8.32;;
65691;SDS011;52411;52.716;6.696;2022-11-06T00:50:28;20.45;;;8.77;;
65691;SDS011;52411;52.716;6.696;2022-11-06T00:52:53;14.68;;;8.18;;
65691;SDS011;52411;52.716;6.696;2022-11-06T00:55:19;15.43;;;9.43;;
65691;SDS011;52411;52.716;6.696;2022-11-06T00:57:45;17.55;;;9.27;;
65691;SDS011;52411;52.716;6.696;2022-11-06T01:00:11;15.52;;;8.55;;
65691;SDS011;52411;52.716;6.696;2022-11-06T01:02:37;14.07;;;8.18;;
65691;SDS011;52411;52.716;6.696;2022-11-06T01:05:03;12.63;;;8.38;;
65691;SDS011;52411;52.716;6.696;2022-11-06T01:07:29;14.52;;;8.82;;
65691;SDS011;52411;52.716;6.696;2022-11-06T01:09:55;19.20;;;8.35;;
65691;SDS011;52411;52.716;6.696;2022-11-06T01:12:20;15.40;;;8.27;;
65691;SDS011;52411;52.716;6.696;2022-11-06T01:14:46;15.30;;;8.52;;
65691;SDS011;52411;52.716;6.696;2022-11-06T01:17:12;13.88;;;8.10;;
65691;SDS011;52411;52.716;6.696;2022-11-06T01:19:38;15.20;;;8.20;;
65691;SDS011;52411;52.716;6.696;2022-11-06T01:22:03;15.70;;;7.60;;
65691;SDS011;52411;52.716;6.696;2022-11-06T01:24:29;15.15;;;8.52;;
65691;SDS011;52411;52.716;6.696;2022-11-06T01:26:55;13.55;;;7.28;;
65691;SDS011;52411;52.716;6.696;2022-11-06T01:29:21;17.52;;;8.45;;
65691;SDS011;52411;52.716;6.696;2022-11-06T01:31:47;13.38;;;8.15;;
65691;SDS011;52411;52.716;6.696;2022-11-06T01:34:16;15.73;;;8.05;;
65691;SDS011;52411;52.716;6.696;2022-11-06T01:36:42;15.18;;;8.90;;
65691;SDS011;52411;52.716;6.696;2022-11-06T01:39:09;15.13;;;8.65;;
65691;SDS011;52411;52.716;6.696;2022-11-06T01:41:45;16.27;;;8.90;;
65691;SDS011;52411;52.716;6.696;2022-11-06T01:47:21;15.82;;;9.30;;
65691;SDS011;52411;52.716;6.696;2022-11-06T01:49:59;16.55;;;9.00;;
65691;SDS011;52411;52.716;6.696;2022-11-06T01:52:28;15.68;;;8.98;;
65691;SDS011;52411;52.716;6.696;2022-11-06T01:54:58;17.13;;;9.18;;
65691;SDS011;52411;52.716;6.696;2022-11-06T01:57:34;16.63;;;8.93;;
65691;SDS011;52411;52.716;6.696;2022-11-06T02:00:00;13.77;;;8.73;;
65691;SDS011;52411;52.716;6.696;2022-11-06T02:02:26;15.23;;;8.35;;
65691;SDS011;52411;52.716;6.696;2022-11-06T02:04:52;14.88;;;9.35;;
65691;SDS011;52411;52.716;6.696;2022-11-06T02:07:17;14.02;;;8.27;;
65691;SDS011;52411;52.716;6.696;2022-11-06T02:09:44;14.93;;;7.85;;
65691;SDS011;52411;52.716;6.696;2022-11-06T02:12:16;11.55;;;8.18;;
65691;SDS011;52411;52.716;6.696;2022-11-06T02:20:10;13.63;;;8.07;;
65691;SDS011;52411;52.716;6.696;2022-11-06T02:27:58;14.77;;;8.05;;
65691;SDS011;52411;52.716;6.696;2022-11-06T02:30:33;19.50;;;9.15;;
65691;SDS011;52411;52.716;6.696;2022-11-06T02:33:09;15.02;;;8.20;;
65691;SDS011;52411;52.716;6.696;2022-11-06T02:35:40;14.23;;;8.73;;
65691;SDS011;52411;52.716;6.696;2022-11-06T02:38:24;14.15;;;8.10;;
65691;SDS011;52411;52.716;6.696;2022-11-06T02:40:56;16.10;;;8.85;;
65691;SDS011;52411;52.716;6.696;2022-11-06T02:43:27;20.23;;;9.48;;
65691;SDS011;52411;52.716;6.696;2022-11-06T02:45:57;17.60;;;8.40;;
65691;SDS011;52411;52.716;6.696;2022-11-06T02:48:29;13.88;;;8.07;;
65691;SDS011;52411;52.716;6.696;2022-11-06T02:51:00;13.55;;;8.40;;
65691;SDS011;52411;52.716;6.696;2022-11-06T02:53:30;13.70;;;7.78;;
65691;SDS011;52411;52.716;6.696;2022-11-06T02:55:58;14.30;;;8.90;;
65691;SDS011;52411;52.716;6.696;2022-11-06T02:58:34;17.80;;;7.97;;
65691;SDS011;52411;52.716;6.696;2022-11-06T03:01:14;13.23;;;7.95;;
65691;SDS011;52411;52.716;6.696;2022-11-06T03:03:42;13.30;;;7.95;;
65691;SDS011;52411;52.716;6.696;2022-11-06T03:06:14;13.20;;;8.02;;
65691;SDS011;52411;52.716;6.696;2022-11-06T03:08:52;13.88;;;6.97;;
65691;SDS011;52411;52.716;6.696;2022-11-06T03:11:30;12.02;;;7.90;;
65691;SDS011;52411;52.716;6.696;2022-11-06T03:16:58;16.63;;;7.47;;
65691;SDS011;52411;52.716;6.696;2022-11-06T03:19:33;15.68;;;8.10;;
65691;SDS011;52411;52.716;6.696;2022-11-06T03:22:15;16.80;;;7.75;;
65691;SDS011;52411;52.716;6.696;2022-11-06T03:25:04;11.75;;;6.93;;
65691;SDS011;52411;52.716;6.696;2022-11-06T03:30:35;14.18;;;7.65;;
65691;SDS011;52411;52.716;6.696;2022-11-06T03:33:17;14.77;;;6.78;;
65691;SDS011;52411;52.716;6.696;2022-11-06T03:35:50;10.15;;;6.32;;
65691;SDS011;52411;52.716;6.696;2022-11-06T03:39:11;12.43;;;6.45;;
65691;SDS011;52411;52.716;6.696;2022-11-06T03:41:44;17.95;;;6.57;;
65691;SDS011;52411;52.716;6.696;2022-11-06T03:44:16;10.77;;;6.07;;
65691;SDS011;52411;52.716;6.696;2022-11-06T03:46:56;13.77;;;6.22;;
65691;SDS011;52411;52.716;6.696;2022-11-06T03:49:38;13.45;;;6.85;;
65691;SDS011;52411;52.716;6.696;2022-11-06T03:52:18;12.63;;;6.65;;
65691;SDS011;52411;52.716;6.696;2022-11-06T03:54:57;10.48;;;6.47;;
65691;SDS011;52411;52.716;6.696;2022-11-06T03:57:42;12.20;;;6.30;;
65691;SDS011;52411;52.716;6.696;2022-11-06T04:00:12;10.05;;;5.40;;
65691;SDS011;52411;52.716;6.696;2022-11-06T04:02:40;13.80;;;6.68;;
65691;SDS011;52411;52.716;6.696;2022-11-06T04:05:11;15.52;;;6.38;;
65691;SDS011;52411;52.716;6.696;2022-11-06T04:07:45;14.23;;;6.70;;
65691;SDS011;52411;52.716;6.696;2022-11-06T04:10:33;10.10;;;5.88;;
65691;SDS011;52411;52.716;6.696;2022-11-06T04:13:20;12.40;;;6.65;;
65691;SDS011;52411;52.716;6.696;2022-11-06T04:16:05;10.20;;;5.63;;
65691;SDS011;52411;52.716;6.696;2022-11-06T04:18:33;9.70;;;5.78;;
65691;SDS011;52411;52.716;6.696;2022-11-06T04:21:03;12.18;;;6.25;;
65691;SDS011;52411;52.716;6.696;2022-11-06T04:26:46;11.82;;;6.38;;
65691;SDS011;52411;52.716;6.696;2022-11-06T04:29:40;11.35;;;6.43;;
65691;SDS011;52411;52.716;6.696;2022-11-06T04:37:27;16.15;;;6.72;;
65691;SDS011;52411;52.716;6.696;2022-11-06T04:40:10;13.77;;;7.10;;
65691;SDS011;52411;52.716;6.696;2022-11-06T04:42:55;13.88;;;7.47;;
65691;SDS011;52411;52.716;6.696;2022-11-06T04:45:30;15.75;;;6.95;;
65691;SDS011;52411;52.716;6.696;2022-11-06T04:47:59;13.70;;;6.00;;
65691;SDS011;52411;52.716;6.696;2022-11-06T04:50:26;12.25;;;6.60;;
65691;SDS011;52411;52.716;6.696;2022-11-06T04:52:54;14.80;;;7.35;;
65691;SDS011;52411;52.716;6.696;2022-11-06T04:55:21;16.88;;;6.68;;
65691;SDS011;52411;52.716;6.696;2022-11-06T04:57:47;13.27;;;6.53;;
65691;SDS011;52411;52.716;6.696;2022-11-06T05:00:13;10.95;;;6.32;;
65691;SDS011;52411;52.716;6.696;2022-11-06T05:02:39;12.38;;;6.50;;
65691;SDS011;52411;52.716;6.696;2022-11-06T05:05:05;13.27;;;6.05;;
65691;SDS011;52411;52.716;6.696;2022-11-06T05:07:31;16.42;;;6.20;;
65691;SDS011;52411;52.716;6.696;2022-11-06T05:09:57;16.88;;;7.10;;
65691;SDS011;52411;52.716;6.696;2022-11-06T05:12:23;14.02;;;5.93;;
65691;SDS011;52411;52.716;6.696;2022-11-06T05:14:48;12.30;;;5.32;;
65691;SDS011;52411;52.716;6.696;2022-11-06T05:17:14;17.15;;;6.00;;
65691;SDS011;52411;52.716;6.696;2022-11-06T05:19:39;12.27;;;5.57;;
65691;SDS011;52411;52.716;6.696;2022-11-06T05:22:05;11.43;;;5.35;;
65691;SDS011;52411;52.716;6.696;2022-11-06T05:24:49;11.82;;;5.78;;
65691;SDS011;52411;52.716;6.696;2022-11-06T05:27:14;13.32;;;5.40;;
65691;SDS011;52411;52.716;6.696;2022-11-06T05:29:40;12.73;;;5.20;;
65691;SDS011;52411;52.716;6.696;2022-11-06T05:32:06;11.50;;;4.95;;
65691;SDS011;52411;52.716;6.696;2022-11-06T05:34:31;11.43;;;5.10;;
65691;SDS011;52411;52.716;6.696;2022-11-06T05:36:57;14.35;;;5.53;;
65691;SDS011;52411;52.716;6.696;2022-11-06T05:39:22;12.23;;;4.95;;
65691;SDS011;52411;52.716;6.696;2022-11-06T05:41:48;14.10;;;5.03;;
65691;SDS011;52411;52.716;6.696;2022-11-06T05:44:14;13.57;;;5.15;;
65691;SDS011;52411;52.716;6.696;2022-11-06T05:46:39;11.88;;;5.18;;
65691;SDS011;52411;52.716;6.696;2022-11-06T05:49:05;8.90;;;4.78;;
65691;SDS011;52411;52.716;6.696;2022-11-06T05:51:30;9.32;;;4.40;;
65691;SDS011;52411;52.716;6.696;2022-11-06T05:53:56;8.55;;;4.13;;
65691;SDS011;52411;52.716;6.696;2022-11-06T05:56:22;8.05;;;4.15;;
65691;SDS011;52411;52.716;6.696;2022-11-06T05:58:47;13.02;;;4.72;;
65691;SDS011;52411;52.716;6.696;2022-11-06T06:01:13;9.40;;;4.70;;
65691;SDS011;52411;52.716;6.696;2022-11-06T06:03:38;8.32;;;4.32;;
65691;SDS011;52411;52.716;6.696;2022-11-06T06:06:04;9.10;;;4.00;;
65691;SDS011;52411;52.716;6.696;2022-11-06T06:08:30;9.95;;;4.40;;
65691;SDS011;52411;52.716;6.696;2022-11-06T06:10:56;14.05;;;4.53;;
65691;SDS011;52411;52.716;6.696;2022-11-06T06:13:21;8.27;;;4.38;;
65691;SDS011;52411;52.716;6.696;2022-11-06T06:15:47;9.50;;;4.60;;
65691;SDS011;52411;52.716;6.696;2022-11-06T06:18:12;8.68;;;4.53;;
65691;SDS011;52411;52.716;6.696;2022-11-06T06:20:38;11.68;;;5.53;;
65691;SDS011;52411;52.716;6.696;2022-11-06T06:23:04;9.70;;;4.30;;
65691;SDS011;52411;52.716;6.696;2022-11-06T06:25:30;9.18;;;4.15;;
65691;SDS011;52411;52.716;6.696;2022-11-06T06:27:56;10.38;;;4.43;;
65691;SDS011;52411;52.716;6.696;2022-11-06T06:30:23;10.13;;;3.78;;
65691;SDS011;52411;52.716;6.696;2022-11-06T06:32:50;12.57;;;4.63;;
65691;SDS011;52411;52.716;6.696;2022-11-06T06:35:16;9.73;;;4.22;;
65691;SDS011;52411;52.716;6.696;2022-11-06T06:37:42;8.38;;;3.83;;
65691;SDS011;52411;52.716;6.696;2022-11-06T06:40:14;12.00;;;3.88;;
65691;SDS011;52411;52.716;6.696;2022-11-06T06:42:39;9.32;;;4.05;;
65691;SDS011;52411;52.716;6.696;2022-11-06T06:45:05;6.82;;;4.00;;
65691;SDS011;52411;52.716;6.696;2022-11-06T06:47:30;11.80;;;3.83;;
65691;SDS011;52411;52.716;6.696;2022-11-06T06:49:56;8.95;;;4.22;;
65691;SDS011;52411;52.716;6.696;2022-11-06T06:52:22;11.10;;;3.90;;
65691;SDS011;52411;52.716;6.696;2022-11-06T06:54:47;12.68;;;3.85;;
65691;SDS011;52411;52.716;6.696;2022-11-06T06:57:13;7.15;;;3.42;;
65691;SDS011;52411;52.716;6.696;2022-11-06T06:59:38;13.85;;;4.30;;
65691;SDS011;52411;52.716;6.696;2022-11-06T07:02:04;8.93;;;4.13;;
65691;SDS011;52411;52.716;6.696;2022-11-06T07:04:30;7.07;;;3.45;;
65691;SDS011;52411;52.716;6.696;2022-11-06T07:06:55;10.15;;;3.97;;
65691;SDS011;52411;52.716;6.696;2022-11-06T07:09:21;7.95;;;3.63;;
65691;SDS011;52411;52.716;6.696;2022-11-06T07:11:48;7.50;;;3.80;;
65691;SDS011;52411;52.716;6.696;2022-11-06T07:14:14;9.10;;;3.88;;
65691;SDS011;52411;52.716;6.696;2022-11-06T07:16:39;10.15;;;4.15;;
65691;SDS011;52411;52.716;6.696;2022-11-06T07:19:05;7.32;;;4.00;;
65691;SDS011;52411;52.716;6.696;2022-11-06T07:21:31;12.02;;;4.03;;
65691;SDS011;52411;52.716;6.696;2022-11-06T07:23:57;9.27;;;3.75;;
65691;SDS011;52411;52.716;6.696;2022-11-06T07:26:22;10.30;;;4.20;;
65691;SDS011;52411;52.716;6.696;2022-11-06T07:28:48;10.25;;;3.78;;
65691;SDS011;52411;52.716;6.696;2022-11-06T07:31:13;13.32;;;3.70;;
65691;SDS011;52411;52.716;6.696;2022-11-06T07:33:39;7.15;;;3.75;;
65691;SDS011;52411;52.716;6.696;2022-11-06T07:36:06;7.30;;;3.50;;
65691;SDS011;52411;52.716;6.696;2022-11-06T07:38:33;10.07;;;3.95;;
65691;SDS011;52411;52.716;6.696;2022-11-06T07:41:00;10.30;;;3.85;;
65691;SDS011;52411;52.716;6.696;2022-11-06T07:43:27;11.73;;;3.55;;
65691;SDS011;52411;52.716;6.696;2022-11-06T07:45:52;9.27;;;3.58;;
65691;SDS011;52411;52.716;6.696;2022-11-06T07:48:18;7.25;;;3.70;;
65691;SDS011;52411;52.716;6.696;2022-11-06T07:50:44;9.55;;;3.70;;
65691;SDS011;52411;52.716;6.696;2022-11-06T07:53:09;10.32;;;3.63;;
65691;SDS011;52411;52.716;6.696;2022-11-06T07:55:35;11.43;;;4.03;;
65691;SDS011;52411;52.716;6.696;2022-11-06T07:58:00;8.68;;;3.38;;
65691;SDS011;52411;52.716;6.696;2022-11-06T08:00:26;8.63;;;3.72;;
65691;SDS011;52411;52.716;6.696;2022-11-06T08:02:52;9.48;;;3.72;;
65691;SDS011;52411;52.716;6.696;2022-11-06T08:05:17;8.15;;;3.22;;
65691;SDS011;52411;52.716;6.696;2022-11-06T08:07:43;5.78;;;3.40;;
65691;SDS011;52411;52.716;6.696;2022-11-06T08:10:09;6.90;;;3.40;;
65691;SDS011;52411;52.716;6.696;2022-11-06T08:12:35;9.02;;;3.20;;
65691;SDS011;52411;52.716;6.696;2022-11-06T08:15:00;6.70;;;3.50;;
65691;SDS011;52411;52.716;6.696;2022-11-06T08:17:26;8.88;;;3.80;;
65691;SDS011;52411;52.716;6.696;2022-11-06T08:19:54;15.68;;;3.80;;
65691;SDS011;52411;52.716;6.696;2022-11-06T08:22:19;7.80;;;3.25;;
65691;SDS011;52411;52.716;6.696;2022-11-06T08:24:45;6.93;;;3.50;;
65691;SDS011;52411;52.716;6.696;2022-11-06T08:27:10;7.85;;;3.67;;
65691;SDS011;52411;52.716;6.696;2022-11-06T08:29:36;12.30;;;3.45;;
65691;SDS011;52411;52.716;6.696;2022-11-06T08:32:01;6.80;;;3.25;;
65691;SDS011;52411;52.716;6.696;2022-11-06T08:34:27;7.93;;;3.10;;
65691;SDS011;52411;52.716;6.696;2022-11-06T08:36:53;6.50;;;3.33;;
65691;SDS011;52411;52.716;6.696;2022-11-06T08:39:19;8.20;;;3.08;;
65691;SDS011;52411;52.716;6.696;2022-11-06T08:41:44;8.68;;;3.47;;
65691;SDS011;52411;52.716;6.696;2022-11-06T08:44:10;9.00;;;2.97;;
65691;SDS011;52411;52.716;6.696;2022-11-06T08:46:36;8.20;;;3.28;;
65691;SDS011;52411;52.716;6.696;2022-11-06T08:49:01;10.20;;;3.28;;
65691;SDS011;52411;52.716;6.696;2022-11-06T08:51:27;9.15;;;3.30;;
65691;SDS011;52411;52.716;6.696;2022-11-06T08:53:52;6.63;;;3.05;;
65691;SDS011;52411;52.716;6.696;2022-11-06T08:56:18;7.43;;;3.35;;
65691;SDS011;52411;52.716;6.696;2022-11-06T08:58:44;9.90;;;3.28;;
65691;SDS011;52411;52.716;6.696;2022-11-06T09:01:09;5.18;;;2.97;;
65691;SDS011;52411;52.716;6.696;2022-11-06T09:03:35;8.63;;;3.10;;
65691;SDS011;52411;52.716;6.696;2022-11-06T09:06:00;9.57;;;3.08;;
65691;SDS011;52411;52.716;6.696;2022-11-06T09:08:28;10.13;;;3.35;;
65691;SDS011;52411;52.716;6.696;2022-11-06T09:10:54;5.63;;;2.97;;
65691;SDS011;52411;52.716;6.696;2022-11-06T09:13:19;6.57;;;3.03;;
65691;SDS011;52411;52.716;6.696;2022-11-06T09:15:45;7.35;;;2.90;;
65691;SDS011;52411;52.716;6.696;2022-11-06T09:18:11;8.90;;;2.92;;
65691;SDS011;52411;52.716;6.696;2022-11-06T09:20:36;13.35;;;4.18;;
65691;SDS011;52411;52.716;6.696;2022-11-06T09:23:06;5.97;;;2.97;;
65691;SDS011;52411;52.716;6.696;2022-11-06T09:25:32;8.40;;;2.73;;
65691;SDS011;52411;52.716;6.696;2022-11-06T09:27:58;7.18;;;2.60;;
65691;SDS011;52411;52.716;6.696;2022-11-06T09:30:25;8.02;;;3.30;;
65691;SDS011;52411;52.716;6.696;2022-11-06T09:32:53;6.45;;;2.83;;
65691;SDS011;52411;52.716;6.696;2022-11-06T09:35:20;5.82;;;3.33;;
65691;SDS011;52411;52.716;6.696;2022-11-06T09:37:47;9.30;;;3.13;;
65691;SDS011;52411;52.716;6.696;2022-11-06T09:40:18;6.43;;;3.00;;
65691;SDS011;52411;52.716;6.696;2022-11-06T09:43:20;6.53;;;2.88;;
65691;SDS011;52411;52.716;6.696;2022-11-06T09:45:38;7.55;;;2.97;;
65691;SDS011;52411;52.716;6.696;2022-11-06T09:50:49;9.73;;;3.17;;
65691;SDS011;52411;52.716;6.696;2022-11-06T09:56:23;7.78;;;2.67;;
65691;SDS011;52411;52.716;6.696;2022-11-06T10:01:22;7.60;;;3.00;;
65691;SDS011;52411;52.716;6.696;2022-11-06T10:03:58;7.22;;;2.90;;
65691;SDS011;52411;52.716;6.696;2022-11-06T10:06:24;6.32;;;2.60;;
65691;SDS011;52411;52.716;6.696;2022-11-06T10:08:52;7.60;;;2.70;;
65691;SDS011;52411;52.716;6.696;2022-11-06T10:11:25;6.05;;;2.60;;
65691;SDS011;52411;52.716;6.696;2022-11-06T10:16:44;6.22;;;2.72;;
65691;SDS011;52411;52.716;6.696;2022-11-06T10:24:21;4.95;;;2.88;;
65691;SDS011;52411;52.716;6.696;2022-11-06T10:27:26;11.38;;;3.30;;
65691;SDS011;52411;52.716;6.696;2022-11-06T10:30:08;6.82;;;2.50;;
65691;SDS011;52411;52.716;6.696;2022-11-06T10:38:17;6.57;;;2.80;;
65691;SDS011;52411;52.716;6.696;2022-11-06T10:40:49;8.93;;;2.78;;
65691;SDS011;52411;52.716;6.696;2022-11-06T10:43:26;5.55;;;2.70;;
65691;SDS011;52411;52.716;6.696;2022-11-06T10:48:45;7.80;;;2.55;;
65691;SDS011;52411;52.716;6.696;2022-11-06T10:59:11;7.03;;;2.65;;
65691;SDS011;52411;52.716;6.696;2022-11-06T11:01:37;5.15;;;2.42;;
65691;SDS011;52411;52.716;6.696;2022-11-06T11:04:03;6.75;;;2.70;;
65691;SDS011;52411;52.716;6.696;2022-11-06T11:06:29;5.90;;;2.58;;
65691;SDS011;52411;52.716;6.696;2022-11-06T11:08:54;6.30;;;2.53;;
65691;SDS011;52411;52.716;6.696;2022-11-06T11:11:21;4.05;;;1.75;;
65691;SDS011;52411;52.716;6.696;2022-11-06T11:16:25;6.32;;;2.10;;
65691;SDS011;52411;52.716;6.696;2022-11-06T11:18:53;7.43;;;2.05;;
65691;SDS011;52411;52.716;6.696;2022-11-06T11:26:25;7.10;;;2.25;;
65691;SDS011;52411;52.716;6.696;2022-11-06T11:28:54;5.00;;;2.20;;
65691;SDS011;52411;52.716;6.696;2022-11-06T11:31:28;4.88;;;2.28;;
65691;SDS011;52411;52.716;6.696;2022-11-06T11:33:56;4.75;;;2.28;;
65691;SDS011;52411;52.716;6.696;2022-11-06T11:36:25;3.95;;;2.03;;
65691;SDS011;52411;52.716;6.696;2022-11-06T11:39:10;6.57;;;2.63;;
65691;SDS011;52411;52.716;6.696;2022-11-06T11:41:36;5.80;;;2.30;;
65691;SDS011;52411;52.716;6.696;2022-11-06T11:46:56;7.60;;;2.30;;
65691;SDS011;52411;52.716;6.696;2022-11-06T11:49:29;7.05;;;2.30;;
65691;SDS011;52411;52.716;6.696;2022-11-06T11:52:02;8.40;;;2.50;;
65691;SDS011;52411;52.716;6.696;2022-11-06T11:54:31;8.65;;;2.40;;
65691;SDS011;52411;52.716;6.696;2022-11-06T11:57:02;7.00;;;2.50;;
65691;SDS011;52411;52.716;6.696;2022-11-06T11:59:44;4.45;;;2.47;;
65691;SDS011;52411;52.716;6.696;2022-11-06T12:02:35;6.55;;;2.45;;
65691;SDS011;52411;52.716;6.696;2022-11-06T12:05:07;6.25;;;2.60;;
65691;SDS011;52411;52.716;6.696;2022-11-06T12:07:41;8.00;;;2.60;;
65691;SDS011;52411;52.716;6.696;2022-11-06T12:12:52;9.60;;;2.30;;
65691;SDS011;52411;52.716;6.696;2022-11-06T12:15:20;6.40;;;2.60;;
65691;SDS011;52411;52.716;6.696;2022-11-06T12:17:54;6.75;;;2.67;;
65691;SDS011;52411;52.716;6.696;2022-11-06T12:20:40;7.40;;;2.50;;
65691;SDS011;52411;52.716;6.696;2022-11-06T12:23:14;8.75;;;2.53;;
65691;SDS011;52411;52.716;6.696;2022-11-06T12:25:43;6.35;;;2.45;;
65691;SDS011;52411;52.716;6.696;2022-11-06T12:28:17;6.65;;;2.45;;
65691;SDS011;52411;52.716;6.696;2022-11-06T12:30:48;6.80;;;2.70;;
65691;SDS011;52411;52.716;6.696;2022-11-06T12:33:21;7.00;;;2.53;;
65691;SDS011;52411;52.716;6.696;2022-11-06T12:35:55;5.28;;;2.03;;
65691;SDS011;52411;52.716;6.696;2022-11-06T12:43:32;7.40;;;2.38;;
65691;SDS011;52411;52.716;6.696;2022-11-06T12:57:37;5.75;;;2.30;;
65691;SDS011;52411;52.716;6.696;2022-11-06T13:06:25;6.30;;;2.20;;
65691;SDS011;52411;52.716;6.696;2022-11-06T13:11:32;6.45;;;2.60;;
65691;SDS011;52411;52.716;6.696;2022-11-06T13:14:11;7.45;;;2.10;;
65691;SDS011;52411;52.716;6.696;2022-11-06T13:16:54;9.98;;;2.63;;
65691;SDS011;52411;52.716;6.696;2022-11-06T13:22:04;3.90;;;2.20;;
65691;SDS011;52411;52.716;6.696;2022-11-06T13:27:46;5.15;;;2.28;;
65691;SDS011;52411;52.716;6.696;2022-11-06T13:30:19;6.78;;;2.30;;
65691;SDS011;52411;52.716;6.696;2022-11-06T13:37:46;6.15;;;2.28;;
65691;SDS011;52411;52.716;6.696;2022-11-06T13:40:20;4.85;;;2.28;;
65691;SDS011;52411;52.716;6.696;2022-11-06T13:46:04;9.38;;;2.45;;
65691;SDS011;52411;52.716;6.696;2022-11-06T13:48:54;6.13;;;2.10;;
65691;SDS011;52411;52.716;6.696;2022-11-06T14:00:25;6.75;;;2.67;;
65691;SDS011;52411;52.716;6.696;2022-11-06T14:08:27;6.03;;;2.92;;
65691;SDS011;52411;52.716;6.696;2022-11-06T14:10:57;5.45;;;2.85;;
65691;SDS011;52411;52.716;6.696;2022-11-06T14:13:31;5.88;;;2.42;;
65691;SDS011;52411;52.716;6.696;2022-11-06T14:16:00;7.07;;;3.15;;
65691;SDS011;52411;52.716;6.696;2022-11-06T14:18:26;8.00;;;3.25;;
65691;SDS011;52411;52.716;6.696;2022-11-06T14:21:24;8.38;;;3.35;;
65691;SDS011;52411;52.716;6.696;2022-11-06T14:26:46;6.75;;;3.20;;
65691;SDS011;52411;52.716;6.696;2022-11-06T14:34:36;9.68;;;3.50;;
65691;SDS011;52411;52.716;6.696;2022-11-06T14:42:15;9.38;;;3.80;;
65691;SDS011;52411;52.716;6.696;2022-11-06T14:50:02;8.05;;;3.85;;
65691;SDS011;52411;52.716;6.696;2022-11-06T14:52:38;7.70;;;3.40;;
65691;SDS011;52411;52.716;6.696;2022-11-06T14:58:30;7.07;;;3.42;;
65691;SDS011;52411;52.716;6.696;2022-11-06T15:03:40;9.07;;;3.40;;
65691;SDS011;52411;52.716;6.696;2022-11-06T15:16:31;5.68;;;2.97;;
65691;SDS011;52411;52.716;6.696;2022-11-06T15:19:03;7.93;;;3.85;;
65691;SDS011;52411;52.716;6.696;2022-11-06T15:21:35;10.70;;;3.70;;
65691;SDS011;52411;52.716;6.696;2022-11-06T15:24:14;6.70;;;3.08;;
65691;SDS011;52411;52.716;6.696;2022-11-06T15:26:44;7.28;;;3.50;;
65691;SDS011;52411;52.716;6.696;2022-11-06T15:31:39;8.90;;;3.40;;
65691;SDS011;52411;52.716;6.696;2022-11-06T15:36:45;8.02;;;3.85;;
65691;SDS011;52411;52.716;6.696;2022-11-06T15:39:21;9.03;;;3.60;;
65691;SDS011;52411;52.716;6.696;2022-11-06T15:41:55;8.73;;;3.90;;
65691;SDS011;52411;52.716;6.696;2022-11-06T15:44:22;12.27;;;3.42;;
65691;SDS011;52411;52.716;6.696;2022-11-06T15:46:55;7.70;;;4.18;;
65691;SDS011;52411;52.716;6.696;2022-11-06T15:49:23;8.88;;;3.55;;
65691;SDS011;52411;52.716;6.696;2022-11-06T15:51:50;10.40;;;4.20;;
65691;SDS011;52411;52.716;6.696;2022-11-06T15:54:35;6.95;;;3.78;;
65691;SDS011;52411;52.716;6.696;2022-11-06T15:57:19;9.75;;;3.67;;
65691;SDS011;52411;52.716;6.696;2022-11-06T16:05:15;8.43;;;3.50;;
65691;SDS011;52411;52.716;6.696;2022-11-06T16:07:42;6.63;;;3.28;;
65691;SDS011;52411;52.716;6.696;2022-11-06T16:10:16;10.73;;;3.70;;
65691;SDS011;52411;52.716;6.696;2022-11-06T16:12:45;6.15;;;3.30;;
65691;SDS011;52411;52.716;6.696;2022-11-06T16:20:51;7.85;;;3.60;;
65691;SDS011;52411;52.716;6.696;2022-11-06T16:23:23;5.15;;;3.28;;
65691;SDS011;52411;52.716;6.696;2022-11-06T16:28:50;5.60;;;3.10;;
65691;SDS011;52411;52.716;6.696;2022-11-06T16:31:21;6.93;;;2.63;;
65691;SDS011;52411;52.716;6.696;2022-11-06T16:33:53;5.07;;;2.45;;
65691;SDS011;52411;52.716;6.696;2022-11-06T16:36:20;5.63;;;2.28;;
65691;SDS011;52411;52.716;6.696;2022-11-06T16:38:46;4.97;;;2.53;;
65691;SDS011;52411;52.716;6.696;2022-11-06T16:41:15;4.38;;;2.20;;
65691;SDS011;52411;52.716;6.696;2022-11-06T16:49:43;2.58;;;1.70;;
65691;SDS011;52411;52.716;6.696;2022-11-06T16:52:18;4.60;;;1.90;;
65691;SDS011;52411;52.716;6.696;2022-11-06T17:00:52;4.43;;;1.63;;
65691;SDS011;52411;52.716;6.696;2022-11-06T17:02:59;5.10;;;1.95;;
65691;SDS011;52411;52.716;6.696;2022-11-06T17:05:36;4.45;;;2.15;;
65691;SDS011;52411;52.716;6.696;2022-11-06T17:08:07;4.97;;;2.00;;
65691;SDS011;52411;52.716;6.696;2022-11-06T17:10:54;5.68;;;2.15;;
65691;SDS011;52411;52.716;6.696;2022-11-06T17:13:29;4.82;;;2.20;;
65691;SDS011;52411;52.716;6.696;2022-11-06T17:15:57;4.38;;;2.58;;
65691;SDS011;52411;52.716;6.696;2022-11-06T17:18:28;5.47;;;2.60;;
65691;SDS011;52411;52.716;6.696;2022-11-06T17:20:56;5.50;;;2.50;;
65691;SDS011;52411;52.716;6.696;2022-11-06T17:23:24;8.48;;;2.92;;
65691;SDS011;52411;52.716;6.696;2022-11-06T17:25:52;5.30;;;2.60;;
65691;SDS011;52411;52.716;6.696;2022-11-06T17:28:20;4.97;;;2.53;;
65691;SDS011;52411;52.716;6.696;2022-11-06T17:30:47;5.38;;;2.75;;
65691;SDS011;52411;52.716;6.696;2022-11-06T17:33:13;5.65;;;2.72;;
65691;SDS011;52411;52.716;6.696;2022-11-06T17:35:39;6.63;;;2.70;;
65691;SDS011;52411;52.716;6.696;2022-11-06T17:38:05;7.63;;;3.22;;
65691;SDS011;52411;52.716;6.696;2022-11-06T17:40:31;5.60;;;2.60;;
65691;SDS011;52411;52.716;6.696;2022-11-06T17:42:56;4.10;;;2.75;;
65691;SDS011;52411;52.716;6.696;2022-11-06T17:45:22;4.70;;;2.35;;
65691;SDS011;52411;52.716;6.696;2022-11-06T17:47:47;4.47;;;2.50;;
65691;SDS011;52411;52.716;6.696;2022-11-06T17:50:13;6.05;;;2.30;;
65691;SDS011;52411;52.716;6.696;2022-11-06T17:52:39;5.88;;;2.55;;
65691;SDS011;52411;52.716;6.696;2022-11-06T17:55:05;3.38;;;2.35;;
65691;SDS011;52411;52.716;6.696;2022-11-06T17:57:31;5.32;;;2.53;;
65691;SDS011;52411;52.716;6.696;2022-11-06T17:59:56;3.47;;;2.35;;
65691;SDS011;52411;52.716;6.696;2022-11-06T18:02:22;2.65;;;1.83;;
65691;SDS011;52411;52.716;6.696;2022-11-06T18:04:48;3.58;;;2.47;;
65691;SDS011;52411;52.716;6.696;2022-11-06T18:07:15;4.10;;;2.33;;
65691;SDS011;52411;52.716;6.696;2022-11-06T18:09:42;7.55;;;2.50;;